createdAt,value
2023-02-14T00:00:55.301Z,1.96
2023-02-14T00:03:23.122Z,1.94
2023-02-14T00:05:50.860Z,1.92
2023-02-14T00:08:18.533Z,1.87
2023-02-14T00:10:46.262Z,1.88
2023-02-14T00:13:14.012Z,1.87
2023-02-14T00:15:42.146Z,1.91
2023-02-14T00:18:09.877Z,1.90
2023-02-14T00:20:37.587Z,1.89
2023-02-14T00:23:05.303Z,1.84
2023-02-14T00:25:34.859Z,1.79
2023-02-14T00:28:02.584Z,1.77
2023-02-14T00:30:30.567Z,1.72
2023-02-14T00:32:59.814Z,1.75
2023-02-14T00:35:27.509Z,1.75
2023-02-14T00:37:56.900Z,1.69
2023-02-14T00:40:24.895Z,1.67
2023-02-14T00:42:52.606Z,1.63
2023-02-14T00:45:20.466Z,1.62
2023-02-14T00:47:48.145Z,1.59
2023-02-14T00:50:17.559Z,1.58
2023-02-14T00:52:45.265Z,1.52
2023-02-14T00:55:13.009Z,1.50
2023-02-14T00:57:40.740Z,1.45
2023-02-14T01:00:09.952Z,1.42
2023-02-14T01:02:37.694Z,1.37
2023-02-14T01:05:06.036Z,1.40
2023-02-14T01:07:35.126Z,1.36
2023-02-14T01:10:02.855Z,1.31
2023-02-14T01:12:30.576Z,1.25
2023-02-14T01:14:58.751Z,1.24
2023-02-14T01:17:26.530Z,1.23
2023-02-14T01:19:54.660Z,1.24
2023-02-14T01:22:22.482Z,1.21
2023-02-14T01:24:51.681Z,1.14
2023-02-14T01:27:19.638Z,1.02
2023-02-14T01:29:47.403Z,0.98
2023-02-14T01:32:15.391Z,0.99
2023-02-14T01:34:43.074Z,0.98
2023-02-14T01:37:10.842Z,1.02
2023-02-14T01:39:38.535Z,1.04
2023-02-14T01:42:07.861Z,1.05
2023-02-14T01:45:01.854Z,1.01
2023-02-14T01:47:32.005Z,1.00
2023-02-14T01:50:04.064Z,0.99
2023-02-14T01:52:36.759Z,0.99
2023-02-14T01:55:09.074Z,0.97
2023-02-14T01:57:41.400Z,0.95
2023-02-14T02:00:28.669Z,0.93
2023-02-14T02:02:57.067Z,0.90
2023-02-14T02:05:25.221Z,0.88
2023-02-14T02:07:53.894Z,0.87
2023-02-14T02:10:22.108Z,0.84
2023-02-14T02:12:52.207Z,0.81
2023-02-14T02:15:20.834Z,0.82
2023-02-14T02:18:00.480Z,0.77
2023-02-14T02:21:09.495Z,0.78
2023-02-14T02:24:18.438Z,0.79
2023-02-14T02:27:12.652Z,0.84
2023-02-14T02:30:18.803Z,0.87
2023-02-14T02:33:31.354Z,0.84
2023-02-14T02:36:38.002Z,0.84
2023-02-14T02:39:16.642Z,0.78
2023-02-14T02:41:56.308Z,0.78
2023-02-14T02:44:35.270Z,0.74
2023-02-14T02:47:08.651Z,0.75
2023-02-14T02:50:04.442Z,0.76
2023-02-14T02:52:59.913Z,0.79
2023-02-14T02:55:55.857Z,0.82
2023-02-14T02:58:26.143Z,0.83
2023-02-14T03:00:56.170Z,0.82
2023-02-14T03:03:43.917Z,0.81
2023-02-14T03:06:11.640Z,0.81
2023-02-14T03:08:40.718Z,0.79
2023-02-14T03:11:08.448Z,0.79
2023-02-14T03:13:54.744Z,0.78
2023-02-14T03:16:34.648Z,0.73
2023-02-14T03:19:48.002Z,0.68
2023-02-14T03:22:28.377Z,0.73
2023-02-14T03:25:08.046Z,0.75
2023-02-14T03:27:42.406Z,0.75
2023-02-14T03:30:19.042Z,0.71
2023-02-14T03:32:50.665Z,0.68
2023-02-14T03:35:26.730Z,0.69
2023-02-14T03:38:00.167Z,0.65
2023-02-14T03:40:37.395Z,0.65
2023-02-14T03:43:09.638Z,0.64
2023-02-14T03:45:42.724Z,0.61
2023-02-14T03:48:14.267Z,0.58
2023-02-14T03:50:45.281Z,0.57
2023-02-14T03:53:16.102Z,0.53
2023-02-14T03:55:52.566Z,0.52
2023-02-14T03:58:25.522Z,0.49
2023-02-14T04:00:55.860Z,0.47
2023-02-14T04:03:26.127Z,0.44
2023-02-14T04:05:54.403Z,0.44
2023-02-14T04:08:22.926Z,0.37
2023-02-14T04:10:53.765Z,0.39
2023-02-14T04:13:21.550Z,0.34
2023-02-14T04:15:49.460Z,0.29
2023-02-14T04:18:34.832Z,0.27
2023-02-14T04:21:02.741Z,0.22
2023-02-14T04:23:30.647Z,0.21
2023-02-14T04:25:59.874Z,0.23
2023-02-14T04:28:27.605Z,0.23
2023-02-14T04:30:55.460Z,0.24
2023-02-14T04:33:23.217Z,0.24
2023-02-14T04:35:50.898Z,0.23
2023-02-14T04:38:18.725Z,0.25
2023-02-14T04:40:46.643Z,0.28
2023-02-14T04:43:15.683Z,0.24
2023-02-14T04:45:43.391Z,0.26
2023-02-14T04:48:11.124Z,0.31
2023-02-14T04:50:38.920Z,0.29
2023-02-14T04:53:06.621Z,0.30
2023-02-14T04:55:34.314Z,0.29
2023-02-14T04:58:02.073Z,0.28
2023-02-14T05:00:31.184Z,0.29
2023-02-14T05:02:58.895Z,0.32
2023-02-14T05:05:26.716Z,0.34
2023-02-14T05:07:54.498Z,0.33
2023-02-14T05:10:22.222Z,0.36
2023-02-14T05:12:49.935Z,0.37
2023-02-14T05:15:17.860Z,0.39
2023-02-14T05:17:46.901Z,0.44
2023-02-14T05:20:14.813Z,0.45
2023-02-14T05:22:42.607Z,0.42
2023-02-14T05:25:10.335Z,0.46
2023-02-14T05:27:38.010Z,0.47
2023-02-14T05:30:07.100Z,0.50
2023-02-14T05:32:34.884Z,0.53
2023-02-14T05:35:03.989Z,0.53
2023-02-14T05:37:32.069Z,0.55
2023-02-14T05:39:59.822Z,0.58
2023-02-14T05:42:27.761Z,0.58
2023-02-14T05:44:55.516Z,0.61
2023-02-14T05:47:23.280Z,0.62
2023-02-14T05:49:50.987Z,0.64
2023-02-14T05:52:20.058Z,0.64
2023-02-14T05:54:47.832Z,0.65
2023-02-14T05:57:15.638Z,0.67
2023-02-14T05:59:43.620Z,0.65
2023-02-14T06:02:11.907Z,0.63
2023-02-14T06:04:39.688Z,0.64
2023-02-14T06:07:07.503Z,0.65
2023-02-14T06:09:36.704Z,0.67
2023-02-14T06:12:06.545Z,0.69
2023-02-14T06:14:34.325Z,0.70
2023-02-14T06:17:02.168Z,0.71
2023-02-14T06:19:29.907Z,0.75
2023-02-14T06:21:57.740Z,0.79
2023-02-14T06:24:25.412Z,0.81
2023-02-14T06:26:54.526Z,0.81
2023-02-14T06:29:22.887Z,0.82
2023-02-14T06:31:50.711Z,0.84
2023-02-14T06:34:18.504Z,0.88
2023-02-14T06:36:46.586Z,0.90
2023-02-14T06:39:14.365Z,0.91
2023-02-14T06:41:42.099Z,0.95
2023-02-14T06:44:11.249Z,0.93
2023-02-14T06:46:39.050Z,0.96
2023-02-14T06:49:06.850Z,0.98
2023-02-14T06:51:34.620Z,0.99
2023-02-14T06:54:02.379Z,0.97
2023-02-14T06:56:30.328Z,0.97
2023-02-14T06:58:58.013Z,0.99
2023-02-14T07:01:27.162Z,1.04
2023-02-14T07:03:54.898Z,1.03
2023-02-14T07:06:22.696Z,1.07
2023-02-14T07:08:50.408Z,1.10
2023-02-14T07:11:19.429Z,1.11
2023-02-14T07:13:49.351Z,1.10
2023-02-14T07:16:17.312Z,1.13
2023-02-14T07:18:46.504Z,1.14
2023-02-14T07:21:14.239Z,1.13
2023-02-14T07:23:42.016Z,1.14
2023-02-14T07:26:09.731Z,1.14
2023-02-14T07:28:37.460Z,1.15
2023-02-14T07:31:05.549Z,1.17
2023-02-14T07:33:33.432Z,1.16
2023-02-14T07:36:05.614Z,1.18
2023-02-14T07:38:33.399Z,1.22
2023-02-14T07:41:01.407Z,1.20
2023-02-14T07:43:29.565Z,1.26
2023-02-14T07:45:57.595Z,1.20
2023-02-14T07:48:25.876Z,1.22
2023-02-14T07:50:56.523Z,1.27
2023-02-14T07:53:26.288Z,1.32
2023-02-14T07:55:54.203Z,1.41
2023-02-14T07:58:22.148Z,1.48
2023-02-14T08:00:51.149Z,1.49
2023-02-14T08:03:18.989Z,1.53
2023-02-14T08:05:56.949Z,1.46
2023-02-14T08:08:28.162Z,1.45
2023-02-14T08:10:56.177Z,1.52
2023-02-14T08:13:23.195Z,1.49
2023-02-14T08:16:06.828Z,1.58
2023-02-14T08:18:36.972Z,1.62
2023-02-14T08:21:05.970Z,1.63
2023-02-14T08:23:35.873Z,1.62
2023-02-14T08:26:03.695Z,1.64
2023-02-14T08:28:32.980Z,1.66
2023-02-14T08:31:01.330Z,1.66
2023-02-14T08:33:29.640Z,1.65
2023-02-14T08:35:57.482Z,1.67
2023-02-14T08:38:25.454Z,1.68
2023-02-14T08:40:54.815Z,1.69
2023-02-14T08:43:22.607Z,1.69
2023-02-14T08:45:53.528Z,1.70
2023-02-14T08:48:23.630Z,1.71
2023-02-14T08:50:51.400Z,1.73
2023-02-14T08:53:19.407Z,1.73
2023-02-14T08:55:47.878Z,1.76
2023-02-14T08:58:16.960Z,1.76
2023-02-14T09:00:44.888Z,1.82
2023-02-14T09:03:13.856Z,1.83
2023-02-14T09:05:41.644Z,1.86
2023-02-14T09:08:09.497Z,1.89
2023-02-14T09:10:37.864Z,1.92
2023-02-14T09:13:05.826Z,1.91
2023-02-14T09:15:35.084Z,1.95
2023-02-14T09:18:02.861Z,1.98
2023-02-14T09:20:30.724Z,1.97
2023-02-14T09:22:58.532Z,1.99
2023-02-14T09:25:26.260Z,1.95
2023-02-14T09:27:53.983Z,1.94
2023-02-14T09:30:21.807Z,1.93
2023-02-14T09:32:52.618Z,1.96
2023-02-14T09:35:37.890Z,2.00
2023-02-14T09:38:05.747Z,2.01
2023-02-14T09:40:34.322Z,1.96
2023-02-14T09:43:10.165Z,1.99
2023-02-14T09:45:39.188Z,2.01
2023-02-14T09:48:15.811Z,2.02
2023-02-14T09:50:48.776Z,2.11
2023-02-14T09:53:22.185Z,2.06
2023-02-14T09:55:53.184Z,2.03
2023-02-14T09:58:28.000Z,2.04
2023-02-14T10:01:01.017Z,2.06
2023-02-14T10:03:58.771Z,2.10
2023-02-14T10:06:46.609Z,2.14
2023-02-14T10:09:28.546Z,2.17
2023-02-14T10:12:00.955Z,2.21
2023-02-14T10:14:33.903Z,2.18
2023-02-14T10:17:05.925Z,2.16
2023-02-14T10:19:39.765Z,2.19
2023-02-14T10:22:13.274Z,2.16
2023-02-14T10:24:46.244Z,2.22
2023-02-14T10:27:19.669Z,2.20
2023-02-14T10:29:47.290Z,2.26
2023-02-14T10:32:19.762Z,2.32
2023-02-14T10:34:50.981Z,2.29
2023-02-14T10:37:28.858Z,2.29
2023-02-14T10:40:26.753Z,2.36
2023-02-14T10:43:02.380Z,2.41
2023-02-14T10:45:40.217Z,2.44
2023-02-14T10:48:19.760Z,2.42
2023-02-14T10:50:57.578Z,2.41
2023-02-14T10:53:34.199Z,2.48
2023-02-14T10:56:06.859Z,2.50
2023-02-14T10:58:38.992Z,2.40
2023-02-14T11:01:09.827Z,2.44
2023-02-14T11:03:42.754Z,2.45
2023-02-14T11:06:12.873Z,2.42
2023-02-14T11:08:42.175Z,2.37
2023-02-14T11:11:18.165Z,2.41
2023-02-14T11:13:46.616Z,2.49
2023-02-14T11:16:20.857Z,2.43
2023-02-14T11:18:48.622Z,2.36
2023-02-14T11:21:21.079Z,2.38
2023-02-14T11:23:51.139Z,2.41
2023-02-14T11:26:24.018Z,2.45
2023-02-14T11:28:53.826Z,2.48
2023-02-14T11:31:31.161Z,2.58
2023-02-14T11:34:00.185Z,2.64
2023-02-14T11:36:31.191Z,2.64
2023-02-14T11:39:06.341Z,2.64
2023-02-14T11:41:51.054Z,2.59
2023-02-14T11:44:23.197Z,2.63
2023-02-14T11:46:53.450Z,2.57
2023-02-14T11:49:39.522Z,2.54
2023-02-14T11:52:17.299Z,2.55
2023-02-14T11:54:49.559Z,2.54
2023-02-14T11:57:22.885Z,2.53
2023-02-14T11:59:53.506Z,2.52
2023-02-14T12:02:37.665Z,2.53
2023-02-14T12:05:08.229Z,2.48
2023-02-14T12:07:39.015Z,2.46
2023-02-14T12:10:28.794Z,2.46
2023-02-14T12:13:00.307Z,2.54
2023-02-14T12:15:41.282Z,2.53
2023-02-14T12:18:31.277Z,2.58
2023-02-14T12:21:06.088Z,2.57
2023-02-14T12:23:42.053Z,2.66
2023-02-14T12:26:18.766Z,2.72
2023-02-14T12:28:52.636Z,2.72
2023-02-14T12:31:20.969Z,2.76
2023-02-14T12:33:50.520Z,2.83
2023-02-14T12:36:34.882Z,2.87
2023-02-14T12:39:10.484Z,2.90
2023-02-14T12:41:48.086Z,2.92
2023-02-14T12:44:24.756Z,2.80
2023-02-14T12:47:06.628Z,2.79
2023-02-14T12:50:09.780Z,2.75
2023-02-14T12:53:07.471Z,2.77
2023-02-14T12:55:50.514Z,2.76
2023-02-14T12:58:30.405Z,2.70
2023-02-14T13:01:09.487Z,2.70
2023-02-14T13:03:59.364Z,2.70
2023-02-14T13:06:31.550Z,2.70
2023-02-14T13:09:15.484Z,2.72
2023-02-14T13:11:55.875Z,2.69
2023-02-14T13:14:39.882Z,2.74
2023-02-14T13:17:15.983Z,2.79
2023-02-14T13:19:54.604Z,2.81
2023-02-14T13:22:25.735Z,2.95
2023-02-14T13:24:58.654Z,2.86
2023-02-14T13:27:29.901Z,2.93
2023-02-14T13:30:02.201Z,2.89
2023-02-14T13:32:34.052Z,2.91
2023-02-14T13:35:02.636Z,2.90
2023-02-14T13:37:31.711Z,2.84
2023-02-14T13:40:03.913Z,2.84
2023-02-14T13:42:56.269Z,2.78
2023-02-14T13:46:03.679Z,2.78
2023-02-14T13:48:31.883Z,2.82
2023-02-14T13:51:02.101Z,2.83
2023-02-14T13:53:42.176Z,2.93
2023-02-14T13:56:35.106Z,2.88
2023-02-14T13:59:06.272Z,2.85
2023-02-14T14:01:39.049Z,2.79
2023-02-14T14:04:28.815Z,2.77
2023-02-14T14:07:21.020Z,2.78
2023-02-14T14:09:57.202Z,2.79
2023-02-14T14:12:46.347Z,2.88
2023-02-14T14:15:20.863Z,2.96
2023-02-14T14:18:11.892Z,2.99
2023-02-14T14:20:44.792Z,3.06
2023-02-14T14:23:27.432Z,3.11
2023-02-14T14:25:55.872Z,3.19
2023-02-14T14:28:26.499Z,3.18
2023-02-14T14:30:56.009Z,3.19
2023-02-14T14:33:29.509Z,3.14
2023-02-14T14:36:00.085Z,3.16
2023-02-14T14:38:28.690Z,3.17
2023-02-14T14:40:57.619Z,3.16
2023-02-14T14:43:31.391Z,3.12
2023-02-14T14:46:02.890Z,3.13
2023-02-14T14:48:33.509Z,3.18
2023-02-14T14:51:01.734Z,3.17
2023-02-14T14:53:33.316Z,3.13
2023-02-14T14:56:01.437Z,3.16
2023-02-14T14:58:36.449Z,3.09
2023-02-14T15:01:06.838Z,3.03
2023-02-14T15:03:35.322Z,3.08
2023-02-14T15:06:09.503Z,3.11
2023-02-14T15:08:37.835Z,3.12
2023-02-14T15:11:09.661Z,3.18
2023-02-14T15:13:50.979Z,3.24
2023-02-14T15:16:23.222Z,3.29
2023-02-14T15:18:54.616Z,3.32
2023-02-14T15:21:22.564Z,3.31
2023-02-14T15:23:50.389Z,3.31
2023-02-14T15:26:19.963Z,3.32
2023-02-14T15:28:56.280Z,3.33
2023-02-14T15:31:29.960Z,3.36
2023-02-14T15:34:00.068Z,3.30
2023-02-14T15:36:28.499Z,3.34
2023-02-14T15:38:58.391Z,3.35
2023-02-14T15:41:27.850Z,3.37
2023-02-14T15:43:57.917Z,3.36
2023-02-14T15:46:35.509Z,3.35
2023-02-14T15:49:09.835Z,3.33
2023-02-14T15:51:38.955Z,3.34
2023-02-14T15:54:08.787Z,3.28
2023-02-14T15:56:42.969Z,3.25
2023-02-14T15:59:17.603Z,3.23
2023-02-14T16:01:53.414Z,3.25
2023-02-14T16:04:25.842Z,3.24
2023-02-14T16:07:23.156Z,3.24
2023-02-14T16:09:52.324Z,3.22
2023-02-14T16:12:31.674Z,3.18
2023-02-14T16:15:11.795Z,3.18
2023-02-14T16:17:42.076Z,3.20
2023-02-14T16:20:38.764Z,3.18
2023-02-14T16:23:25.005Z,3.20
2023-02-14T16:25:53.242Z,3.13
2023-02-14T16:28:21.702Z,3.15
2023-02-14T16:30:55.557Z,3.12
2023-02-14T16:33:27.021Z,3.10
2023-02-14T16:35:55.780Z,3.03
2023-02-14T16:38:23.755Z,3.04
2023-02-14T16:40:54.316Z,3.04
2023-02-14T16:43:22.549Z,2.98
2023-02-14T16:45:50.469Z,2.99
2023-02-14T16:48:18.237Z,2.96
2023-02-14T16:50:47.787Z,2.96
2023-02-14T16:53:25.419Z,2.94
2023-02-14T16:55:54.997Z,2.98
2023-02-14T16:58:26.912Z,2.96
2023-02-14T17:00:54.652Z,2.91
2023-02-14T17:03:22.559Z,2.91
2023-02-14T17:05:52.017Z,2.91
2023-02-14T17:08:19.961Z,2.91
2023-02-14T17:10:49.181Z,2.90
2023-02-14T17:13:20.347Z,2.88
2023-02-14T17:15:48.544Z,2.85
2023-02-14T17:18:18.487Z,2.84
2023-02-14T17:20:46.546Z,2.84
2023-02-14T17:23:16.276Z,2.84
2023-02-14T17:25:43.983Z,2.88
2023-02-14T17:28:11.929Z,2.85
2023-02-14T17:30:40.318Z,2.86
2023-02-14T17:33:08.288Z,2.86
2023-02-14T17:35:36.602Z,2.85
2023-02-14T17:38:04.505Z,2.81
2023-02-14T17:40:33.661Z,2.81
2023-02-14T17:43:02.006Z,2.76
2023-02-14T17:45:29.884Z,2.75
2023-02-14T17:47:57.689Z,2.71
2023-02-14T17:50:25.570Z,2.69
2023-02-14T17:52:55.197Z,2.69
2023-02-14T17:55:23.530Z,2.68
2023-02-14T17:57:52.825Z,2.67
2023-02-14T18:00:22.305Z,2.63
2023-02-14T18:02:50.242Z,2.65
2023-02-14T18:05:18.160Z,2.65
2023-02-14T18:07:45.848Z,2.64
2023-02-14T18:10:13.551Z,2.61
2023-02-14T18:12:42.206Z,2.62
2023-02-14T18:15:11.522Z,2.62
2023-02-14T18:17:39.311Z,2.57
2023-02-14T18:20:08.287Z,2.57
2023-02-14T18:22:36.803Z,2.54
2023-02-14T18:25:04.860Z,2.48
2023-02-14T18:27:32.904Z,2.42
2023-02-14T18:30:00.795Z,2.40
2023-02-14T18:32:29.973Z,2.44
2023-02-14T18:34:57.924Z,2.41
2023-02-14T18:37:25.862Z,2.42
2023-02-14T18:39:53.747Z,2.45
2023-02-14T18:42:21.707Z,2.46
2023-02-14T18:44:49.483Z,2.51
2023-02-14T18:47:17.263Z,2.46
2023-02-14T18:49:46.370Z,2.46
2023-02-14T18:52:14.133Z,2.44
2023-02-14T18:54:42.002Z,2.42
2023-02-14T18:57:09.724Z,2.42
2023-02-14T18:59:37.547Z,2.43
2023-02-14T19:02:05.260Z,2.47
2023-02-14T19:04:33.073Z,2.46
2023-02-14T19:07:04.444Z,2.44
2023-02-14T19:09:38.850Z,2.43
2023-02-14T19:12:07.182Z,2.41
2023-02-14T19:14:34.983Z,2.42
2023-02-14T19:17:03.009Z,2.39
2023-02-14T19:19:30.945Z,2.36
2023-02-14T19:21:59.792Z,2.39
2023-02-14T19:24:29.129Z,2.39
2023-02-14T19:26:57.716Z,2.41
2023-02-14T19:29:25.506Z,2.39
2023-02-14T19:31:54.734Z,2.33
2023-02-14T19:34:26.141Z,2.28
2023-02-14T19:36:56.275Z,2.30
2023-02-14T19:39:24.551Z,2.34
2023-02-14T19:41:53.728Z,2.37
2023-02-14T19:44:25.099Z,2.37
2023-02-14T19:46:54.354Z,2.39
2023-02-14T19:49:22.371Z,2.34
2023-02-14T19:51:52.213Z,2.32
2023-02-14T19:54:21.900Z,2.34
2023-02-14T19:56:49.723Z,2.35
2023-02-14T19:59:22.592Z,2.30
2023-02-14T20:01:51.306Z,2.30
2023-02-14T20:04:21.487Z,2.31
2023-02-14T20:06:49.909Z,2.29
2023-02-14T20:09:19.091Z,2.29
2023-02-14T20:11:50.112Z,2.23
2023-02-14T20:14:21.462Z,2.24
2023-02-14T20:16:50.313Z,2.25
2023-02-14T20:19:20.114Z,2.24
2023-02-14T20:21:49.560Z,2.26
2023-02-14T20:24:20.189Z,2.27
2023-02-14T20:26:49.029Z,2.28
2023-02-14T20:29:17.578Z,2.28
2023-02-14T20:31:48.452Z,2.26
2023-02-14T20:34:16.534Z,2.25
2023-02-14T20:36:45.797Z,2.22
2023-02-14T20:39:14.232Z,2.21
2023-02-14T20:41:43.679Z,2.21
2023-02-14T20:44:15.489Z,2.17
2023-02-14T20:46:43.824Z,2.15
2023-02-14T20:49:13.696Z,2.15
2023-02-14T20:51:41.665Z,2.17
2023-02-14T20:54:09.365Z,2.17
2023-02-14T20:56:37.244Z,2.16
2023-02-14T20:59:04.890Z,2.14
2023-02-14T21:01:32.785Z,2.12
2023-02-14T21:04:00.578Z,2.06
2023-02-14T21:06:33.211Z,2.06
2023-02-14T21:09:01.648Z,2.05
2023-02-14T21:11:29.418Z,2.04
2023-02-14T21:13:59.740Z,2.02
2023-02-14T21:16:29.297Z,1.98
2023-02-14T21:18:59.424Z,2.04
2023-02-14T21:21:32.692Z,2.00
2023-02-14T21:24:01.782Z,2.04
2023-02-14T21:26:29.931Z,1.99
2023-02-14T21:28:57.986Z,1.93
2023-02-14T21:31:26.052Z,1.91
2023-02-14T21:33:55.270Z,1.97
2023-02-14T21:36:25.077Z,1.96
2023-02-14T21:38:56.953Z,1.96
2023-02-14T21:41:26.888Z,1.94
2023-02-14T21:43:56.389Z,1.92
2023-02-14T21:46:27.416Z,1.94
2023-02-14T21:49:13.691Z,1.89
2023-02-14T21:51:42.147Z,1.88
2023-02-14T21:54:11.717Z,1.88
2023-02-14T21:56:41.276Z,1.90
2023-02-14T21:59:09.606Z,1.93
2023-02-14T22:01:41.117Z,1.92
2023-02-14T22:04:11.450Z,1.87
2023-02-14T22:06:41.576Z,1.85
2023-02-14T22:09:12.903Z,1.84
2023-02-14T22:11:40.662Z,1.85
2023-02-14T22:14:08.462Z,1.81
2023-02-14T22:16:36.881Z,1.77
2023-02-14T22:19:05.200Z,1.76
2023-02-14T22:21:33.629Z,1.77
2023-02-14T22:24:02.172Z,1.72
2023-02-14T22:26:33.767Z,1.69
2023-02-14T22:29:03.770Z,1.67
2023-02-14T22:31:35.050Z,1.65
2023-02-14T22:34:02.896Z,1.63
2023-02-14T22:36:30.639Z,1.64
2023-02-14T22:38:58.391Z,1.67
2023-02-14T22:41:26.907Z,1.68
2023-02-14T22:43:58.459Z,1.67
2023-02-14T22:46:28.175Z,1.66
2023-02-14T22:48:57.623Z,1.64
2023-02-14T22:51:27.185Z,1.59
2023-02-14T22:53:57.218Z,1.61
2023-02-14T22:56:26.477Z,1.59
2023-02-14T22:58:56.754Z,1.59
2023-02-14T23:01:25.337Z,1.61
2023-02-14T23:03:54.749Z,1.65
2023-02-14T23:06:22.887Z,1.70
2023-02-14T23:08:50.615Z,1.74
2023-02-14T23:11:20.548Z,1.72
2023-02-14T23:14:05.767Z,1.73
2023-02-14T23:16:52.199Z,1.71
2023-02-14T23:19:41.455Z,1.72
2023-02-14T23:22:11.670Z,1.67
2023-02-14T23:24:39.842Z,1.65
2023-02-14T23:27:08.291Z,1.68
2023-02-14T23:29:37.188Z,1.67
2023-02-14T23:32:07.691Z,1.73
2023-02-14T23:34:37.574Z,1.74
2023-02-14T23:37:06.149Z,1.76
2023-02-14T23:39:35.838Z,1.68
2023-02-14T23:42:03.979Z,1.68
2023-02-14T23:44:32.707Z,1.70
2023-02-14T23:47:03.083Z,1.68
2023-02-14T23:49:33.908Z,1.65
2023-02-14T23:52:02.224Z,1.64
2023-02-14T23:54:30.478Z,1.65
2023-02-14T23:57:01.266Z,1.63
2023-02-14T23:59:29.129Z,1.66
